Flight Track Log - Related Links

Times and Time Zones

All times are in EDT time to prevent confusion due to time zone crossing. See the DAL975 flight status page for this flight to view local times or setup timezone preferences in your user account.

Time Position Orientation Groundspeed Altitude Reporting Facility
EDT Latitude Longitude Course Direction KTS MPH feet Rate Location/Type
Tue 07:07:04 PM 40.7500 -73.8333 270° West 159 183 2,100  Level New York TRACON
Tue 07:07:58 PM 40.7667 -73.7667 72° East 268 308 5,400 3,632 Climbing New York TRACON
Tue 07:08:58 PM 40.8333 -73.7833 349° North 272 313 9,000 3,400 Climbing New York TRACON
Tue 07:09:00 PM 40.7834 -74.2588 270° West  Level FlightAware Approximate
Tue 07:09:58 PM 40.8667 -73.8667 298° West 268 308 12,200  Level New York TRACON
Tue 07:10:00 PM 40.7834 -74.3917 270° West  Level FlightAware Approximate
Tue 07:11:00 PM 40.7834 -74.5246 270° West  Level FlightAware Approximate
Tue 07:11:04 PM 40.8833 -74.0000 279° West 322 371 14,800  Level New York TRACON
Tue 07:11:58 PM 40.8833 -74.1000 270° West 326 375 15,000 111 Climbing New York TRACON
Tue 07:12:00 PM 40.7833 -74.6575 270° West  Level FlightAware Approximate
Tue 07:12:52 PM 40.8667 -74.2000 258° West 336 387 15,000  Level New York TRACON
Tue 07:13:58 PM 40.8667 -74.3333 270° West 341 392 16,600 1,000 Climbing New York TRACON
Tue 07:14:52 PM 40.8500 -74.4500 259° West 335 386 17,000 200 Climbing New York TRACON
Tue 07:15:58 PM 40.8500 -74.5833 270° West 337 388 17,000  Level New York TRACON
Tue 07:16:36 PM 40.8372 -74.6575 257° West 352 405 17,000 796 Level New York Center
Tue 07:17:36 PM 40.8314 -74.7697 266° West 347 399 18,300 2,000 Climbing New York Center
Tue 07:18:33 PM 40.8036 -74.9078 255° West 352 405 20,900 2,441 Climbing New York Center
Tue 07:19:34 PM 40.7697 -75.0400 251° West 364 419 23,100 2,132 Climbing New York Center
Tue 07:20:34 PM 40.7294 -75.1772 249° West 386 444 25,200 1,983 Climbing New York Center
Tue 07:21:35 PM 40.6908 -75.3169 250° West 401 461 27,100 1,785 Climbing New York Center
Tue 07:22:35 PM 40.6497 -75.4592 249° West 406 467 28,800 1,400 Climbing New York Center
Tue 07:23:35 PM 40.6086 -75.6014 249° West 417 480 29,900 893 Climbing New York Center
Tue 07:24:36 PM 40.5650 -75.7514 249° West 431 496 30,600 1,412 Climbing New York Center
Tue 07:25:34 PM 40.5233 -75.8958 249° West 431 496 32,700 2,085 Climbing New York Center
Tue 07:26:34 PM 40.4825 -76.0156 246° West 431 496 34,700 1,636 Climbing New York Center
Tue 07:27:35 PM 40.4492 -76.1575 253° West 418 481 36,000 645 Climbing New York Center
Tue 07:28:35 PM 40.4133 -76.2992 252° West 413 475 36,000  Level New York Center
Tue 07:29:36 PM 40.3756 -76.4381 250° West 413 475 36,000  Level New York Center
Tue 07:30:36 PM 40.3397 -76.5767 251° West 413 475 36,000  Level New York Center
Tue 07:31:33 PM 40.3008 -76.7258 251° West 408 470 36,000  Level New York Center
Tue 07:32:34 PM 40.2644 -76.8669 251° West 408 470 36,000  Level New York Center
Tue 07:33:34 PM 40.2281 -77.0078 251° West 408 470 36,000 -200 Level New York Center
Tue 07:34:34 PM 40.1914 -77.1458 251° West 408 470 35,600 -694 Descending New York Center
Tue 07:35:35 PM 40.1525 -77.2864 250° West 408 470 34,600 -1,475 Descending New York Center
Tue 07:36:36 PM 40.1178 -77.4217 251° West 408 470 32,600 -3,130 Descending New York Center
Tue 07:38:39 PM 40.0414 -77.7139 251° West 415 478 25,000 -3,443 Descending Cleveland Center
Tue 07:39:39 PM 39.9992 -77.8567 249° West 421 484 22,100 -1,500 Descending Cleveland Center
Tue 07:40:39 PM 39.9856 -77.9953 263° West 416 479 22,000 -50 Descending Cleveland Center
Tue 07:41:39 PM 40.0486 -78.1122 305° West 367 422 22,000  Level Cleveland Center
Tue 07:42:39 PM 40.1114 -78.2214 307° West 367 422 22,000  Level Cleveland Center
Tue 07:43:39 PM 40.1886 -78.3219 315° West 379 436 22,000  Level Cleveland Center
Tue 07:44:39 PM 40.2633 -78.4200 315° West 384 442 22,000  Level Cleveland Center
Tue 07:45:39 PM 40.3425 -78.5183 317° Northwest 384 442 22,000  Level Cleveland Center
Tue 07:46:39 PM 40.4233 -78.6139 318° Northwest 384 442 22,000  Level Cleveland Center
Tue 07:47:39 PM 40.5000 -78.7072 317° Northwest 384 442 22,000 -500 Level Cleveland Center
Tue 07:48:39 PM 40.5767 -78.8061 316° Northwest 379 436 21,000 -1,000 Descending Cleveland Center
Tue 07:49:39 PM 40.6531 -78.9000 317° Northwest 379 436 20,000 -950 Descending Cleveland Center
Tue 07:50:39 PM 40.7358 -79.0075 315° West 379 436 19,100 -900 Descending Cleveland Center
Tue 07:51:39 PM 40.7936 -79.1131 306° West 374 430 18,200 -1,350 Descending Cleveland Center
Tue 07:52:39 PM 40.8222 -79.2358 287° West 349 402 16,400 -2,050 Descending Cleveland Center
Tue 07:53:39 PM 40.8319 -79.3647 276° West 341 392 14,100 -2,150 Descending Cleveland Center
Tue 07:54:39 PM 40.8394 -79.4825 275° West 341 392 12,100 -1,600 Descending Cleveland Center
Tue 07:55:39 PM 40.8425 -79.6006 272° West 335 386 10,900 -1,050 Descending Cleveland Center
Tue 07:56:39 PM 40.8269 -79.7161 260° West 322 371 10,000 -450 Descending Cleveland Center
Tue 07:57:39 PM 40.8131 -79.8258 261° West 322 371 10,000  Level Cleveland Center
Tue 07:58:39 PM 40.7950 -79.9358 258° West 317 365 10,000 -600 Level Cleveland Center
Tue 07:59:39 PM 40.7578 -80.0131 238° Southwest 289 333 8,800 -1,500 Descending Cleveland Center
Tue 08:00:39 PM 40.7292 -80.0953 245° Southwest 275 316 7,000 -1,400 Descending Cleveland Center
Tue 08:01:39 PM 40.6939 -80.1833 242° Southwest 263 303 6,000 -1,100 Descending Cleveland Center
Tue 08:02:39 PM 40.6608 -80.2628 241° Southwest 263 303 4,800 -1,000 Descending Cleveland Center
Tue 08:03:39 PM 40.6214 -80.3425 237° Southwest 263 303 4,000 -800 Descending Cleveland Center
Tue 08:05:00 PM 40.5116 -80.2498 147° Southeast  Level Estimated

Login

Don't have an account? Register now (free) for customized features, flight alerts, and more!